sensor_id;sensor_type;location;lat;lon;timestamp;temperature;humidity
41447;DHT22;27185;52.040;4.490;2022-09-23T00:00:26;13.70;95.20
41447;DHT22;27185;52.040;4.490;2022-09-23T00:03:13;13.70;95.20
41447;DHT22;27185;52.040;4.490;2022-09-23T00:06:06;13.70;95.30
41447;DHT22;27185;52.040;4.490;2022-09-23T00:08:53;13.70;95.50
41447;DHT22;27185;52.040;4.490;2022-09-23T00:11:38;13.60;95.30
41447;DHT22;27185;52.040;4.490;2022-09-23T00:14:24;13.60;95.30
41447;DHT22;27185;52.040;4.490;2022-09-23T00:17:10;13.50;95.30
41447;DHT22;27185;52.040;4.490;2022-09-23T00:19:55;13.50;95.30
41447;DHT22;27185;52.040;4.490;2022-09-23T00:22:41;13.50;95.40
41447;DHT22;27185;52.040;4.490;2022-09-23T00:25:27;13.40;95.40
41447;DHT22;27185;52.040;4.490;2022-09-23T00:28:14;13.40;95.50
41447;DHT22;27185;52.040;4.490;2022-09-23T00:31:08;13.40;95.50
41447;DHT22;27185;52.040;4.490;2022-09-23T00:33:55;13.30;95.70
41447;DHT22;27185;52.040;4.490;2022-09-23T00:36:41;13.30;95.50
41447;DHT22;27185;52.040;4.490;2022-09-23T00:39:27;13.20;95.50
41447;DHT22;27185;52.040;4.490;2022-09-23T00:42:16;13.20;95.50
41447;DHT22;27185;52.040;4.490;2022-09-23T00:45:02;13.20;95.60
41447;DHT22;27185;52.040;4.490;2022-09-23T00:48:00;13.10;95.60
41447;DHT22;27185;52.040;4.490;2022-09-23T00:50:49;13.10;95.80
41447;DHT22;27185;52.040;4.490;2022-09-23T00:53:36;13.10;95.80
41447;DHT22;27185;52.040;4.490;2022-09-23T00:56:23;13.10;95.80
41447;DHT22;27185;52.040;4.490;2022-09-23T00:59:09;13.00;95.90
41447;DHT22;27185;52.040;4.490;2022-09-23T01:01:56;13.00;96.00
41447;DHT22;27185;52.040;4.490;2022-09-23T01:04:43;13.00;96.10
41447;DHT22;27185;52.040;4.490;2022-09-23T01:07:28;13.00;96.10
41447;DHT22;27185;52.040;4.490;2022-09-23T01:10:15;13.00;96.10
41447;DHT22;27185;52.040;4.490;2022-09-23T01:13:21;13.00;96.10
41447;DHT22;27185;52.040;4.490;2022-09-23T01:16:17;13.00;96.50
41447;DHT22;27185;52.040;4.490;2022-09-23T01:19:33;13.00;96.20
41447;DHT22;27185;52.040;4.490;2022-09-23T01:22:48;13.00;96.60
41447;DHT22;27185;52.040;4.490;2022-09-23T01:44:30;12.70;96.50
41447;DHT22;27185;52.040;4.490;2022-09-23T01:47:21;12.70;96.20
41447;DHT22;27185;52.040;4.490;2022-09-23T01:50:15;12.60;96.20
41447;DHT22;27185;52.040;4.490;2022-09-23T01:56:29;12.60;96.30
41447;DHT22;27185;52.040;4.490;2022-09-23T01:59:33;12.50;96.40
41447;DHT22;27185;52.040;4.490;2022-09-23T02:02:27;12.50;96.40
41447;DHT22;27185;52.040;4.490;2022-09-23T02:05:18;12.40;96.40
41447;DHT22;27185;52.040;4.490;2022-09-23T02:08:13;12.50;96.50
41447;DHT22;27185;52.040;4.490;2022-09-23T02:11:11;12.40;96.50
41447;DHT22;27185;52.040;4.490;2022-09-23T02:14:11;12.40;96.80
41447;DHT22;27185;52.040;4.490;2022-09-23T02:17:05;12.40;96.80
41447;DHT22;27185;52.040;4.490;2022-09-23T02:19:57;12.40;96.60
41447;DHT22;27185;52.040;4.490;2022-09-23T02:22:53;12.40;96.70
41447;DHT22;27185;52.040;4.490;2022-09-23T02:25:57;12.40;96.80
41447;DHT22;27185;52.040;4.490;2022-09-23T02:29:00;12.40;97.00
41447;DHT22;27185;52.040;4.490;2022-09-23T02:41:25;12.40;97.10
41447;DHT22;27185;52.040;4.490;2022-09-23T02:44:15;12.40;96.80
41447;DHT22;27185;52.040;4.490;2022-09-23T02:47:01;12.40;96.80
41447;DHT22;27185;52.040;4.490;2022-09-23T02:49:47;12.40;96.80
41447;DHT22;27185;52.040;4.490;2022-09-23T02:52:33;12.40;96.90
41447;DHT22;27185;52.040;4.490;2022-09-23T02:55:24;12.50;97.00
41447;DHT22;27185;52.040;4.490;2022-09-23T02:58:14;12.50;97.10
41447;DHT22;27185;52.040;4.490;2022-09-23T03:01:08;12.50;97.10
41447;DHT22;27185;52.040;4.490;2022-09-23T03:04:15;12.60;97.30
41447;DHT22;27185;52.040;4.490;2022-09-23T03:07:46;12.60;97.30
41447;DHT22;27185;52.040;4.490;2022-09-23T03:13:52;12.60;97.10
41447;DHT22;27185;52.040;4.490;2022-09-23T03:16:58;12.70;97.50
41447;DHT22;27185;52.040;4.490;2022-09-23T03:20:00;12.80;97.40
41447;DHT22;27185;52.040;4.490;2022-09-23T03:22:51;12.70;97.30
41447;DHT22;27185;52.040;4.490;2022-09-23T03:25:40;12.80;97.20
41447;DHT22;27185;52.040;4.490;2022-09-23T03:28:29;12.80;97.20
41447;DHT22;27185;52.040;4.490;2022-09-23T03:31:15;12.80;97.20
41447;DHT22;27185;52.040;4.490;2022-09-23T03:34:07;12.80;97.40
41447;DHT22;27185;52.040;4.490;2022-09-23T03:37:03;12.80;97.20
41447;DHT22;27185;52.040;4.490;2022-09-23T03:39:58;12.80;97.20
41447;DHT22;27185;52.040;4.490;2022-09-23T03:42:47;12.90;97.20
41447;DHT22;27185;52.040;4.490;2022-09-23T03:45:33;12.90;97.20
41447;DHT22;27185;52.040;4.490;2022-09-23T03:48:19;12.90;97.20
41447;DHT22;27185;52.040;4.490;2022-09-23T03:51:21;12.90;97.20
41447;DHT22;27185;52.040;4.490;2022-09-23T03:54:08;12.90;97.40
41447;DHT22;27185;52.040;4.490;2022-09-23T03:56:57;13.00;97.20
41447;DHT22;27185;52.040;4.490;2022-09-23T03:59:43;13.00;97.30
41447;DHT22;27185;52.040;4.490;2022-09-23T04:02:28;13.00;97.30
41447;DHT22;27185;52.040;4.490;2022-09-23T04:05:14;13.00;97.30
41447;DHT22;27185;52.040;4.490;2022-09-23T04:08:00;13.00;97.30
41447;DHT22;27185;52.040;4.490;2022-09-23T04:10:45;13.10;97.30
41447;DHT22;27185;52.040;4.490;2022-09-23T04:13:31;13.10;97.30
41447;DHT22;27185;52.040;4.490;2022-09-23T04:16:16;13.20;97.40
41447;DHT22;27185;52.040;4.490;2022-09-23T04:19:02;13.20;97.40
41447;DHT22;27185;52.040;4.490;2022-09-23T04:21:48;13.20;97.40
41447;DHT22;27185;52.040;4.490;2022-09-23T04:24:34;13.30;97.40
41447;DHT22;27185;52.040;4.490;2022-09-23T04:27:19;13.30;97.40
41447;DHT22;27185;52.040;4.490;2022-09-23T04:30:05;13.40;97.40
41447;DHT22;27185;52.040;4.490;2022-09-23T04:32:51;13.40;97.40
41447;DHT22;27185;52.040;4.490;2022-09-23T04:35:38;13.40;97.30
41447;DHT22;27185;52.040;4.490;2022-09-23T04:38:24;13.50;97.40
41447;DHT22;27185;52.040;4.490;2022-09-23T04:41:10;13.60;97.30
41447;DHT22;27185;52.040;4.490;2022-09-23T04:43:55;13.60;97.30
41447;DHT22;27185;52.040;4.490;2022-09-23T04:46:44;13.60;97.30
41447;DHT22;27185;52.040;4.490;2022-09-23T04:49:33;13.70;97.30
41447;DHT22;27185;52.040;4.490;2022-09-23T04:52:18;13.70;97.20
41447;DHT22;27185;52.040;4.490;2022-09-23T04:55:05;13.70;97.20
41447;DHT22;27185;52.040;4.490;2022-09-23T04:57:51;13.70;97.20
41447;DHT22;27185;52.040;4.490;2022-09-23T05:00:37;13.70;97.10
41447;DHT22;27185;52.040;4.490;2022-09-23T05:03:23;13.80;97.10
41447;DHT22;27185;52.040;4.490;2022-09-23T05:06:10;13.80;97.10
41447;DHT22;27185;52.040;4.490;2022-09-23T05:08:58;13.80;97.10
41447;DHT22;27185;52.040;4.490;2022-09-23T05:11:44;13.80;97.10
41447;DHT22;27185;52.040;4.490;2022-09-23T05:14:30;13.90;97.10
41447;DHT22;27185;52.040;4.490;2022-09-23T05:17:15;13.90;97.10
41447;DHT22;27185;52.040;4.490;2022-09-23T05:20:01;13.90;97.10
41447;DHT22;27185;52.040;4.490;2022-09-23T05:22:47;13.90;97.10
41447;DHT22;27185;52.040;4.490;2022-09-23T05:25:32;14.00;97.10
41447;DHT22;27185;52.040;4.490;2022-09-23T05:28:18;14.00;97.10
41447;DHT22;27185;52.040;4.490;2022-09-23T05:31:12;14.10;97.10
41447;DHT22;27185;52.040;4.490;2022-09-23T05:34:00;14.10;97.00
41447;DHT22;27185;52.040;4.490;2022-09-23T05:36:46;14.10;97.00
41447;DHT22;27185;52.040;4.490;2022-09-23T05:39:32;14.10;96.90
41447;DHT22;27185;52.040;4.490;2022-09-23T05:42:17;14.20;96.90
41447;DHT22;27185;52.040;4.490;2022-09-23T05:45:05;14.20;96.90
41447;DHT22;27185;52.040;4.490;2022-09-23T05:47:51;14.20;96.90
41447;DHT22;27185;52.040;4.490;2022-09-23T05:50:37;14.30;96.80
41447;DHT22;27185;52.040;4.490;2022-09-23T05:53:23;14.30;96.80
41447;DHT22;27185;52.040;4.490;2022-09-23T05:56:08;14.30;96.80
41447;DHT22;27185;52.040;4.490;2022-09-23T05:58:56;14.30;96.80
41447;DHT22;27185;52.040;4.490;2022-09-23T06:01:42;14.30;96.80
41447;DHT22;27185;52.040;4.490;2022-09-23T06:04:28;14.40;96.80
41447;DHT22;27185;52.040;4.490;2022-09-23T06:07:14;14.40;96.80
41447;DHT22;27185;52.040;4.490;2022-09-23T06:09:59;14.40;96.80
41447;DHT22;27185;52.040;4.490;2022-09-23T06:12:45;14.50;96.90
41447;DHT22;27185;52.040;4.490;2022-09-23T06:15:31;14.50;96.80
41447;DHT22;27185;52.040;4.490;2022-09-23T06:18:17;14.60;96.80
41447;DHT22;27185;52.040;4.490;2022-09-23T06:21:03;14.60;96.80
41447;DHT22;27185;52.040;4.490;2022-09-23T06:23:49;14.70;96.80
41447;DHT22;27185;52.040;4.490;2022-09-23T06:26:36;14.70;96.80
41447;DHT22;27185;52.040;4.490;2022-09-23T06:29:22;14.80;96.80
41447;DHT22;27185;52.040;4.490;2022-09-23T06:32:08;14.90;96.80
41447;DHT22;27185;52.040;4.490;2022-09-23T06:34:53;14.90;96.80
41447;DHT22;27185;52.040;4.490;2022-09-23T06:37:39;15.00;96.80
41447;DHT22;27185;52.040;4.490;2022-09-23T06:40:24;15.00;96.80
41447;DHT22;27185;52.040;4.490;2022-09-23T06:43:10;15.10;96.80
41447;DHT22;27185;52.040;4.490;2022-09-23T06:45:58;15.10;96.80
41447;DHT22;27185;52.040;4.490;2022-09-23T06:48:43;15.20;96.80
41447;DHT22;27185;52.040;4.490;2022-09-23T06:51:29;15.40;96.60
41447;DHT22;27185;52.040;4.490;2022-09-23T06:54:14;15.40;96.70
41447;DHT22;27185;52.040;4.490;2022-09-23T06:57:00;15.40;96.60
41447;DHT22;27185;52.040;4.490;2022-09-23T06:59:45;15.50;96.70
41447;DHT22;27185;52.040;4.490;2022-09-23T07:02:31;15.60;96.60
41447;DHT22;27185;52.040;4.490;2022-09-23T07:05:16;15.70;96.60
41447;DHT22;27185;52.040;4.490;2022-09-23T07:08:05;15.80;96.50
41447;DHT22;27185;52.040;4.490;2022-09-23T07:10:56;15.90;96.50
41447;DHT22;27185;52.040;4.490;2022-09-23T07:13:42;16.00;96.30
41447;DHT22;27185;52.040;4.490;2022-09-23T07:16:27;16.10;96.20
41447;DHT22;27185;52.040;4.490;2022-09-23T07:19:13;16.20;96.10
41447;DHT22;27185;52.040;4.490;2022-09-23T07:21:58;16.30;96.10
41447;DHT22;27185;52.040;4.490;2022-09-23T07:24:44;16.30;96.00
41447;DHT22;27185;52.040;4.490;2022-09-23T07:27:31;16.40;96.00
41447;DHT22;27185;52.040;4.490;2022-09-23T07:30:17;16.50;96.00
41447;DHT22;27185;52.040;4.490;2022-09-23T07:33:03;16.60;95.90
41447;DHT22;27185;52.040;4.490;2022-09-23T07:35:49;16.70;95.80
41447;DHT22;27185;52.040;4.490;2022-09-23T07:38:35;16.80;95.70
41447;DHT22;27185;52.040;4.490;2022-09-23T07:41:21;16.90;95.60
41447;DHT22;27185;52.040;4.490;2022-09-23T07:44:07;16.90;95.30
41447;DHT22;27185;52.040;4.490;2022-09-23T07:46:53;17.00;95.30
41447;DHT22;27185;52.040;4.490;2022-09-23T07:49:39;17.10;95.20
41447;DHT22;27185;52.040;4.490;2022-09-23T07:52:24;17.10;95.00
41447;DHT22;27185;52.040;4.490;2022-09-23T07:55:10;17.20;95.00
41447;DHT22;27185;52.040;4.490;2022-09-23T07:57:55;17.20;95.00
41447;DHT22;27185;52.040;4.490;2022-09-23T08:00:41;17.20;94.80
41447;DHT22;27185;52.040;4.490;2022-09-23T08:03:26;17.30;94.90
41447;DHT22;27185;52.040;4.490;2022-09-23T08:06:13;17.40;94.90
41447;DHT22;27185;52.040;4.490;2022-09-23T08:08:59;17.50;94.90
41447;DHT22;27185;52.040;4.490;2022-09-23T08:11:46;17.60;94.80
41447;DHT22;27185;52.040;4.490;2022-09-23T08:14:32;17.60;94.50
41447;DHT22;27185;52.040;4.490;2022-09-23T08:17:17;17.70;94.30
41447;DHT22;27185;52.040;4.490;2022-09-23T08:20:03;17.80;94.30
41447;DHT22;27185;52.040;4.490;2022-09-23T08:22:50;17.90;94.40
41447;DHT22;27185;52.040;4.490;2022-09-23T08:25:35;17.90;94.20
41447;DHT22;27185;52.040;4.490;2022-09-23T08:28:21;18.10;94.10
41447;DHT22;27185;52.040;4.490;2022-09-23T08:31:07;18.10;93.80
41447;DHT22;27185;52.040;4.490;2022-09-23T08:33:53;18.20;93.90
41447;DHT22;27185;52.040;4.490;2022-09-23T08:36:40;18.30;93.60
41447;DHT22;27185;52.040;4.490;2022-09-23T08:39:25;18.40;93.70
41447;DHT22;27185;52.040;4.490;2022-09-23T08:42:16;18.50;93.70
41447;DHT22;27185;52.040;4.490;2022-09-23T08:45:06;18.60;93.30
41447;DHT22;27185;52.040;4.490;2022-09-23T08:47:59;18.60;92.80
41447;DHT22;27185;52.040;4.490;2022-09-23T08:50:53;18.70;92.90
41447;DHT22;27185;52.040;4.490;2022-09-23T08:53:43;18.80;92.30
41447;DHT22;27185;52.040;4.490;2022-09-23T08:56:32;18.80;92.70
41447;DHT22;27185;52.040;4.490;2022-09-23T08:59:30;18.90;92.80
41447;DHT22;27185;52.040;4.490;2022-09-23T09:02:21;19.00;92.60
41447;DHT22;27185;52.040;4.490;2022-09-23T09:05:08;19.10;92.80
41447;DHT22;27185;52.040;4.490;2022-09-23T09:07:57;19.20;92.80
41447;DHT22;27185;52.040;4.490;2022-09-23T09:10:44;19.20;92.60
41447;DHT22;27185;52.040;4.490;2022-09-23T09:13:38;19.30;92.50
41447;DHT22;27185;52.040;4.490;2022-09-23T09:19:45;19.50;92.10
41447;DHT22;27185;52.040;4.490;2022-09-23T09:22:46;19.50;91.00
41447;DHT22;27185;52.040;4.490;2022-09-23T09:25:44;19.60;91.50
41447;DHT22;27185;52.040;4.490;2022-09-23T09:28:44;19.60;91.30
41447;DHT22;27185;52.040;4.490;2022-09-23T09:31:43;19.70;91.70
41447;DHT22;27185;52.040;4.490;2022-09-23T09:34:44;19.80;90.50
41447;DHT22;27185;52.040;4.490;2022-09-23T09:37:35;19.80;91.00
41447;DHT22;27185;52.040;4.490;2022-09-23T09:40:22;19.90;91.60
41447;DHT22;27185;52.040;4.490;2022-09-23T09:43:07;20.00;91.60
41447;DHT22;27185;52.040;4.490;2022-09-23T09:46:22;20.00;90.90
41447;DHT22;27185;52.040;4.490;2022-09-23T09:49:11;20.10;90.60
41447;DHT22;27185;52.040;4.490;2022-09-23T09:55:23;20.20;90.00
41447;DHT22;27185;52.040;4.490;2022-09-23T09:58:11;20.30;90.60
41447;DHT22;27185;52.040;4.490;2022-09-23T10:01:00;20.30;90.90
41447;DHT22;27185;52.040;4.490;2022-09-23T10:03:47;20.40;91.00
41447;DHT22;27185;52.040;4.490;2022-09-23T10:06:34;20.40;91.00
41447;DHT22;27185;52.040;4.490;2022-09-23T10:09:20;20.50;91.00
41447;DHT22;27185;52.040;4.490;2022-09-23T10:12:14;20.50;90.90
41447;DHT22;27185;52.040;4.490;2022-09-23T10:15:00;20.60;90.50
41447;DHT22;27185;52.040;4.490;2022-09-23T10:17:49;20.60;90.80
41447;DHT22;27185;52.040;4.490;2022-09-23T10:20:35;20.60;90.20
41447;DHT22;27185;52.040;4.490;2022-09-23T10:23:26;20.60;90.40
41447;DHT22;27185;52.040;4.490;2022-09-23T10:26:13;20.60;90.30
41447;DHT22;27185;52.040;4.490;2022-09-23T10:29:23;20.60;90.10
41447;DHT22;27185;52.040;4.490;2022-09-23T10:35:16;20.50;90.00
41447;DHT22;27185;52.040;4.490;2022-09-23T10:38:02;20.50;90.40
41447;DHT22;27185;52.040;4.490;2022-09-23T10:40:47;20.50;90.40
41447;DHT22;27185;52.040;4.490;2022-09-23T10:50:42;20.50;88.70
41447;DHT22;27185;52.040;4.490;2022-09-23T10:56:49;20.50;89.80
41447;DHT22;27185;52.040;4.490;2022-09-23T11:22:26;21.50;87.80
41447;DHT22;27185;52.040;4.490;2022-09-23T11:32:13;21.90;88.40
41447;DHT22;27185;52.040;4.490;2022-09-23T11:38:19;22.20;86.00
41447;DHT22;27185;52.040;4.490;2022-09-23T11:41:24;22.30;87.80
41447;DHT22;27185;52.040;4.490;2022-09-23T11:44:19;22.40;86.00
41447;DHT22;27185;52.040;4.490;2022-09-23T11:47:17;22.50;86.00
41447;DHT22;27185;52.040;4.490;2022-09-23T11:50:39;22.70;85.40
41447;DHT22;27185;52.040;4.490;2022-09-23T11:53:42;22.90;83.30
41447;DHT22;27185;52.040;4.490;2022-09-23T11:56:39;23.10;83.20
41447;DHT22;27185;52.040;4.490;2022-09-23T12:00:03;23.30;83.60
41447;DHT22;27185;52.040;4.490;2022-09-23T12:02:58;23.50;82.00
41447;DHT22;27185;52.040;4.490;2022-09-23T12:05:51;23.50;84.80
41447;DHT22;27185;52.040;4.490;2022-09-23T12:08:42;23.60;83.70
41447;DHT22;27185;52.040;4.490;2022-09-23T12:11:47;23.60;84.20
41447;DHT22;27185;52.040;4.490;2022-09-23T12:20:55;23.40;82.30
41447;DHT22;27185;52.040;4.490;2022-09-23T12:24:00;23.30;82.70
41447;DHT22;27185;52.040;4.490;2022-09-23T12:26:54;23.20;83.40
41447;DHT22;27185;52.040;4.490;2022-09-23T12:29:41;23.10;84.80
41447;DHT22;27185;52.040;4.490;2022-09-23T12:32:27;23.00;85.60
41447;DHT22;27185;52.040;4.490;2022-09-23T12:35:40;23.00;85.80
41447;DHT22;27185;52.040;4.490;2022-09-23T12:38:34;23.00;84.90
41447;DHT22;27185;52.040;4.490;2022-09-23T12:41:34;22.90;85.20
41447;DHT22;27185;52.040;4.490;2022-09-23T12:44:29;23.00;86.00
41447;DHT22;27185;52.040;4.490;2022-09-23T12:50:45;22.90;86.60
41447;DHT22;27185;52.040;4.490;2022-09-23T12:56:28;22.80;86.80
41447;DHT22;27185;52.040;4.490;2022-09-23T12:59:56;22.70;86.20
41447;DHT22;27185;52.040;4.490;2022-09-23T13:05:59;22.60;87.50
41447;DHT22;27185;52.040;4.490;2022-09-23T13:09:14;22.60;87.80
41447;DHT22;27185;52.040;4.490;2022-09-23T13:12:04;22.60;86.90
41447;DHT22;27185;52.040;4.490;2022-09-23T13:14:52;22.60;87.70
41447;DHT22;27185;52.040;4.490;2022-09-23T13:17:39;22.60;87.90
41447;DHT22;27185;52.040;4.490;2022-09-23T13:20:33;22.50;87.70
41447;DHT22;27185;52.040;4.490;2022-09-23T13:23:28;22.50;87.00
41447;DHT22;27185;52.040;4.490;2022-09-23T13:26:17;22.50;87.70
41447;DHT22;27185;52.040;4.490;2022-09-23T13:29:03;22.40;88.20
41447;DHT22;27185;52.040;4.490;2022-09-23T13:31:50;22.30;88.70
41447;DHT22;27185;52.040;4.490;2022-09-23T13:34:36;22.10;88.70
41447;DHT22;27185;52.040;4.490;2022-09-23T13:37:29;22.10;89.00
41447;DHT22;27185;52.040;4.490;2022-09-23T13:40:23;22.00;89.30
41447;DHT22;27185;52.040;4.490;2022-09-23T13:43:22;21.90;89.80
41447;DHT22;27185;52.040;4.490;2022-09-23T13:46:12;21.80;90.00
41447;DHT22;27185;52.040;4.490;2022-09-23T13:49:00;21.80;90.20
41447;DHT22;27185;52.040;4.490;2022-09-23T13:51:47;21.70;90.40
41447;DHT22;27185;52.040;4.490;2022-09-23T13:54:47;21.60;90.40
41447;DHT22;27185;52.040;4.490;2022-09-23T13:57:34;21.60;90.50
41447;DHT22;27185;52.040;4.490;2022-09-23T14:00:20;21.50;90.70
41447;DHT22;27185;52.040;4.490;2022-09-23T14:03:17;21.40;90.80
41447;DHT22;27185;52.040;4.490;2022-09-23T14:06:11;21.40;90.90
41447;DHT22;27185;52.040;4.490;2022-09-23T14:08:59;21.30;91.10
41447;DHT22;27185;52.040;4.490;2022-09-23T14:11:45;21.20;91.20
41447;DHT22;27185;52.040;4.490;2022-09-23T14:14:34;21.10;91.30
41447;DHT22;27185;52.040;4.490;2022-09-23T14:17:21;21.10;91.50
41447;DHT22;27185;52.040;4.490;2022-09-23T14:20:13;21.10;91.70
41447;DHT22;27185;52.040;4.490;2022-09-23T14:23:12;21.00;91.80
41447;DHT22;27185;52.040;4.490;2022-09-23T14:26:01;21.00;91.90
41447;DHT22;27185;52.040;4.490;2022-09-23T14:28:47;21.00;91.90
41447;DHT22;27185;52.040;4.490;2022-09-23T14:31:33;21.00;92.00
41447;DHT22;27185;52.040;4.490;2022-09-23T14:35:23;21.00;92.10
41447;DHT22;27185;52.040;4.490;2022-09-23T14:37:44;21.00;92.40
41447;DHT22;27185;52.040;4.490;2022-09-23T14:40:50;21.00;92.30
41447;DHT22;27185;52.040;4.490;2022-09-23T14:43:36;20.90;92.40
41447;DHT22;27185;52.040;4.490;2022-09-23T14:46:23;20.90;92.50
41447;DHT22;27185;52.040;4.490;2022-09-23T14:52:00;20.90;92.70
41447;DHT22;27185;52.040;4.490;2022-09-23T14:54:51;20.90;92.70
41447;DHT22;27185;52.040;4.490;2022-09-23T14:57:37;20.90;92.70
41447;DHT22;27185;52.040;4.490;2022-09-23T15:00:23;20.80;92.80
41447;DHT22;27185;52.040;4.490;2022-09-23T15:03:14;20.80;93.00
41447;DHT22;27185;52.040;4.490;2022-09-23T15:06:04;20.70;93.50
41447;DHT22;27185;52.040;4.490;2022-09-23T15:08:54;20.70;93.50
41447;DHT22;27185;52.040;4.490;2022-09-23T15:11:40;20.60;93.50
41447;DHT22;27185;52.040;4.490;2022-09-23T15:14:27;20.50;93.70
41447;DHT22;27185;52.040;4.490;2022-09-23T15:17:15;20.40;94.00
41447;DHT22;27185;52.040;4.490;2022-09-23T15:20:04;20.40;95.20
41447;DHT22;27185;52.040;4.490;2022-09-23T15:22:53;20.20;94.30
41447;DHT22;27185;52.040;4.490;2022-09-23T15:25:39;20.20;94.40
41447;DHT22;27185;52.040;4.490;2022-09-23T15:28:25;20.10;94.60
41447;DHT22;27185;52.040;4.490;2022-09-23T15:31:12;20.00;94.80
41447;DHT22;27185;52.040;4.490;2022-09-23T15:34:00;20.00;95.00
41447;DHT22;27185;52.040;4.490;2022-09-23T15:36:45;19.90;95.20
41447;DHT22;27185;52.040;4.490;2022-09-23T15:39:31;19.90;95.30
41447;DHT22;27185;52.040;4.490;2022-09-23T15:42:17;19.80;95.70
41447;DHT22;27185;52.040;4.490;2022-09-23T15:45:03;19.70;95.90
41447;DHT22;27185;52.040;4.490;2022-09-23T15:47:49;19.50;96.20
41447;DHT22;27185;52.040;4.490;2022-09-23T15:50:35;19.30;96.40
41447;DHT22;27185;52.040;4.490;2022-09-23T15:53:23;19.20;96.70
41447;DHT22;27185;52.040;4.490;2022-09-23T15:56:10;19.10;97.00
41447;DHT22;27185;52.040;4.490;2022-09-23T15:58:55;19.00;97.20
41447;DHT22;27185;52.040;4.490;2022-09-23T16:01:41;18.90;97.50
41447;DHT22;27185;52.040;4.490;2022-09-23T16:04:28;18.90;97.70
41447;DHT22;27185;52.040;4.490;2022-09-23T16:07:15;18.80;97.80
41447;DHT22;27185;52.040;4.490;2022-09-23T16:10:01;18.80;98.00
41447;DHT22;27185;52.040;4.490;2022-09-23T16:12:47;18.70;98.10
41447;DHT22;27185;52.040;4.490;2022-09-23T16:15:33;18.70;98.40
41447;DHT22;27185;52.040;4.490;2022-09-23T16:18:19;18.70;98.50
41447;DHT22;27185;52.040;4.490;2022-09-23T16:21:04;18.70;98.60
41447;DHT22;27185;52.040;4.490;2022-09-23T16:23:52;18.60;98.70
41447;DHT22;27185;52.040;4.490;2022-09-23T16:26:39;18.60;98.70
41447;DHT22;27185;52.040;4.490;2022-09-23T16:29:25;18.60;98.80
41447;DHT22;27185;52.040;4.490;2022-09-23T16:32:11;18.50;98.80
41447;DHT22;27185;52.040;4.490;2022-09-23T16:34:57;18.50;98.90
41447;DHT22;27185;52.040;4.490;2022-09-23T16:37:42;18.50;98.90
41447;DHT22;27185;52.040;4.490;2022-09-23T16:40:31;18.40;99.00
41447;DHT22;27185;52.040;4.490;2022-09-23T16:43:17;18.40;99.10
41447;DHT22;27185;52.040;4.490;2022-09-23T16:46:06;18.30;99.20
41447;DHT22;27185;52.040;4.490;2022-09-23T16:48:53;18.30;99.30
41447;DHT22;27185;52.040;4.490;2022-09-23T16:51:41;18.30;99.30
41447;DHT22;27185;52.040;4.490;2022-09-23T16:54:27;18.30;99.40
41447;DHT22;27185;52.040;4.490;2022-09-23T16:57:13;18.30;99.50
41447;DHT22;27185;52.040;4.490;2022-09-23T16:59:58;18.30;99.60
41447;DHT22;27185;52.040;4.490;2022-09-23T17:03:03;18.30;99.70
41447;DHT22;27185;52.040;4.490;2022-09-23T17:06:11;18.30;99.70
41447;DHT22;27185;52.040;4.490;2022-09-23T17:08:59;18.30;99.80
41447;DHT22;27185;52.040;4.490;2022-09-23T17:11:50;18.30;99.70
41447;DHT22;27185;52.040;4.490;2022-09-23T17:14:37;18.30;99.90
41447;DHT22;27185;52.040;4.490;2022-09-23T17:17:22;18.30;99.90
41447;DHT22;27185;52.040;4.490;2022-09-23T17:20:08;18.30;99.90
41447;DHT22;27185;52.040;4.490;2022-09-23T17:22:54;18.30;99.90
41447;DHT22;27185;52.040;4.490;2022-09-23T17:25:46;18.30;99.90
41447;DHT22;27185;52.040;4.490;2022-09-23T17:28:32;18.30;99.90
41447;DHT22;27185;52.040;4.490;2022-09-23T17:31:17;18.30;99.90
41447;DHT22;27185;52.040;4.490;2022-09-23T17:34:03;18.40;99.90
41447;DHT22;27185;52.040;4.490;2022-09-23T17:36:49;18.30;99.90
41447;DHT22;27185;52.040;4.490;2022-09-23T17:39:34;18.30;99.90
41447;DHT22;27185;52.040;4.490;2022-09-23T17:42:21;18.40;99.90
41447;DHT22;27185;52.040;4.490;2022-09-23T17:45:09;18.40;99.90
41447;DHT22;27185;52.040;4.490;2022-09-23T17:47:56;18.40;99.90
41447;DHT22;27185;52.040;4.490;2022-09-23T17:50:42;18.40;99.90
41447;DHT22;27185;52.040;4.490;2022-09-23T17:53:29;18.40;99.90
41447;DHT22;27185;52.040;4.490;2022-09-23T17:56:20;18.40;99.90
41447;DHT22;27185;52.040;4.490;2022-09-23T17:59:09;18.40;99.90
41447;DHT22;27185;52.040;4.490;2022-09-23T18:01:56;18.40;99.90
41447;DHT22;27185;52.040;4.490;2022-09-23T18:04:42;18.40;99.90
41447;DHT22;27185;52.040;4.490;2022-09-23T18:07:27;18.40;99.90
41447;DHT22;27185;52.040;4.490;2022-09-23T18:10:13;18.40;99.90
41447;DHT22;27185;52.040;4.490;2022-09-23T18:12:58;18.40;99.90
41447;DHT22;27185;52.040;4.490;2022-09-23T18:15:44;18.40;99.90
41447;DHT22;27185;52.040;4.490;2022-09-23T18:18:30;18.40;99.90
41447;DHT22;27185;52.040;4.490;2022-09-23T18:21:15;18.30;99.90
41447;DHT22;27185;52.040;4.490;2022-09-23T18:24:01;18.30;99.90
41447;DHT22;27185;52.040;4.490;2022-09-23T18:26:47;18.30;99.90
41447;DHT22;27185;52.040;4.490;2022-09-23T18:29:38;18.20;99.90
41447;DHT22;27185;52.040;4.490;2022-09-23T18:32:23;18.10;99.90
41447;DHT22;27185;52.040;4.490;2022-09-23T18:35:10;18.00;99.90
41447;DHT22;27185;52.040;4.490;2022-09-23T18:37:56;17.80;99.90
41447;DHT22;27185;52.040;4.490;2022-09-23T18:40:52;17.50;99.90
41447;DHT22;27185;52.040;4.490;2022-09-23T18:43:40;17.40;99.90
41447;DHT22;27185;52.040;4.490;2022-09-23T18:46:28;17.20;99.90
41447;DHT22;27185;52.040;4.490;2022-09-23T18:49:14;17.10;99.90
41447;DHT22;27185;52.040;4.490;2022-09-23T18:52:18;17.00;99.90
41447;DHT22;27185;52.040;4.490;2022-09-23T18:55:05;16.80;99.90
41447;DHT22;27185;52.040;4.490;2022-09-23T18:57:50;16.80;99.90
41447;DHT22;27185;52.040;4.490;2022-09-23T19:00:36;16.70;99.90
41447;DHT22;27185;52.040;4.490;2022-09-23T19:03:22;16.70;99.90
41447;DHT22;27185;52.040;4.490;2022-09-23T19:06:09;16.60;99.90
41447;DHT22;27185;52.040;4.490;2022-09-23T19:08:55;16.60;99.90
41447;DHT22;27185;52.040;4.490;2022-09-23T19:11:41;16.50;99.90
41447;DHT22;27185;52.040;4.490;2022-09-23T19:14:27;16.50;99.90
41447;DHT22;27185;52.040;4.490;2022-09-23T19:17:13;16.40;99.90
41447;DHT22;27185;52.040;4.490;2022-09-23T19:19:58;16.40;99.90
41447;DHT22;27185;52.040;4.490;2022-09-23T19:22:44;16.30;99.90
41447;DHT22;27185;52.040;4.490;2022-09-23T19:25:34;16.30;99.90
41447;DHT22;27185;52.040;4.490;2022-09-23T19:28:21;16.30;99.90
41447;DHT22;27185;52.040;4.490;2022-09-23T19:31:11;16.20;99.90
41447;DHT22;27185;52.040;4.490;2022-09-23T19:34:03;16.20;99.90
41447;DHT22;27185;52.040;4.490;2022-09-23T19:36:55;16.20;99.90